Impacts TAF Board
For situational awareness. Not to be used for flight planning purposes.
IDs:

KDCA - Washington/National, VA, US

Issued at 1720 UTC 23 Sep 2018
Updated at 2005 UTC 23 Sep 2018
Potential Impact None Slight Moderate High
Time1952Z 23/21Z 23/22Z 23/23Z 24/00Z 24/01Z 24/02Z 24/03Z 24/04Z 24/05Z 24/06Z 24/07Z 24/08Z 24/09Z>>
Type OBS PRVL PRVL PRVL PRVL PRVL PRVL PRVL PRVL PRVL PRVL PRVL PRVL PRVL
VIS 8 3 3 3 3 3 3 3 3 3 3 3 3 3
CIG 8 7 7 7 7 7 7 7 7 7 8 8 8 8
Cover OVC OVC OVC OVC OVC OVC OVC OVC OVC OVC OVC OVC OVC OVC
FltCat IFR IFR IFR IFR IFR IFR IFR IFR IFR IFR IFR IFR IFR IFR
WX -RA -DZ -RA BR -DZ -RA BR -DZ -RA BR -DZ -RA BR -DZ -RA BR -DZ -RA BR -DZ -RA BR -DZ -RA BR -DZ -RA BR -DZ BR -DZ BR -DZ BR -DZ BR
WDir 30 40 40 40 40 40 40 40 40 40 40 40 40 40
WSpd 10 6 6 6 6 6 6 6 6 6 6 6 6 6
WGst -- -- -- -- -- -- -- -- -- -- -- -- -- --
Raw TAF
KDCA 231720Z 2318/2424 04006KT 3SM -DZRA BR BKN007 OVC010
  FM240600 04006KT 3SM -DZ BR SCT003 OVC008
  FM241000 05008KT 3SM BR SCT003 OVC008
  FM241200 06007KT 5SM -RA OVC008
  FM241800 08009KT 6SM -RA SCT008 OVC010
  FM242100 08011G24KT 6SM -RA SCT008 OVC010


Raw METAR
KDCA 231952Z 03010KT 8SM -RA OVC008 18/16 A3019 RMK AO2 RAE16B36 CIG 006V012 SLP223 P0000 T01780161 $
KDCA 231859Z 03008KT 3SM -RA BR OVC008 18/16 A3020 RMK AO2 CIG 005V013 P0000 T01780161 $
KDCA 231852Z 03008KT 2SM -RA BR BKN008 OVC011 18/16 A3020 RMK AO2 SLP225 P0003 T01780161 $
KDCA 231828Z 03007KT 2SM -RA BR BKN008 OVC011 18/16 A3020 RMK AO2 CIG 006V010 P0002 T01780161 $
KDCA 231819Z 03009KT 3SM -RA BR OVC008 18/16 A3020 RMK AO2 CIG 006V011 P0001 T01780161 $
KDCA 231752Z 04010KT 6SM -RA BR OVC011 18/16 A3021 RMK AO2 CIG 006V015 SLP228 P0001 60030 T01830161 10183 20167 56005 $

METAR Board
Radar Display
Forecast Discussion
For situational awareness. Not to be used for flight planning purposes.